createdAt,value
2019-03-15T00:01:31.769Z,75.14
2019-03-15T00:04:00.069Z,75.51
2019-03-15T00:06:28.349Z,74.05
2019-03-15T00:08:57.363Z,75.03
2019-03-15T00:11:25.778Z,74.89
2019-03-15T00:13:54.099Z,73.66
2019-03-15T00:16:22.368Z,74.79
2019-03-15T00:18:50.881Z,72.40
2019-03-15T00:21:19.168Z,71.12
2019-03-15T00:23:47.531Z,69.31
2019-03-15T00:26:15.806Z,67.91
2019-03-15T00:28:44.995Z,71.93
2019-03-15T00:31:13.249Z,70.89
2019-03-15T00:33:41.551Z,73.21
2019-03-15T00:36:09.806Z,72.04
2019-03-15T00:38:38.080Z,71.55
2019-03-15T00:41:06.348Z,72.93
2019-03-15T00:43:34.603Z,72.26
2019-03-15T00:46:02.880Z,73.47
2019-03-15T00:48:31.151Z,71.68
2019-03-15T00:50:59.431Z,74.80
2019-03-15T00:53:27.762Z,72.33
2019-03-15T00:55:56.039Z,69.64
2019-03-15T00:58:24.319Z,71.86
2019-03-15T01:00:52.598Z,72.02
2019-03-15T01:03:20.876Z,75.14
2019-03-15T01:05:49.151Z,76.17
2019-03-15T01:08:17.394Z,76.24
2019-03-15T01:10:45.672Z,75.54
2019-03-15T01:13:14.096Z,78.53
2019-03-15T01:15:42.401Z,78.67
2019-03-15T01:18:10.664Z,78.61
2019-03-15T01:20:38.922Z,77.76
2019-03-15T01:23:07.180Z,78.34
2019-03-15T01:25:35.525Z,78.59
2019-03-15T01:28:03.796Z,79.95
2019-03-15T01:30:32.161Z,80.94
2019-03-15T01:33:00.440Z,80.78
2019-03-15T01:35:28.736Z,80.21
2019-03-15T01:37:57.006Z,79.20
2019-03-15T01:40:25.268Z,78.35
2019-03-15T01:42:53.520Z,78.57
2019-03-15T01:45:21.797Z,79.21
2019-03-15T01:47:50.498Z,80.50
2019-03-15T01:50:18.941Z,80.37
2019-03-15T01:52:47.233Z,79.03
2019-03-15T01:55:15.491Z,79.88
2019-03-15T01:57:43.734Z,78.85
2019-03-15T02:00:12.087Z,81.15
2019-03-15T02:02:40.336Z,79.24
2019-03-15T02:05:08.657Z,77.30
2019-03-15T02:07:36.938Z,80.74
2019-03-15T02:10:07.842Z,78.97
2019-03-15T02:12:36.100Z,79.40
2019-03-15T02:15:07.180Z,76.40
2019-03-15T02:17:35.443Z,79.53
2019-03-15T02:20:04.948Z,80.25
2019-03-15T02:22:33.583Z,80.13
2019-03-15T02:25:02.046Z,80.60
2019-03-15T02:27:30.247Z,81.93
2019-03-15T02:29:58.581Z,80.25
2019-03-15T02:32:26.851Z,80.30
2019-03-15T02:34:55.177Z,81.22
2019-03-15T02:37:23.438Z,81.37
2019-03-15T02:39:51.701Z,80.41
2019-03-15T02:42:20.330Z,80.87
2019-03-15T02:44:48.611Z,80.90
2019-03-15T02:47:16.892Z,81.75
2019-03-15T02:49:45.147Z,81.34
2019-03-15T02:52:13.426Z,80.62
2019-03-15T02:54:41.676Z,82.40
2019-03-15T02:57:09.930Z,82.65
2019-03-15T02:59:38.194Z,81.85
2019-03-15T03:02:06.522Z,80.42
2019-03-15T03:04:34.771Z,83.42
2019-03-15T03:07:03.142Z,83.07
2019-03-15T03:09:31.395Z,82.34
2019-03-15T03:11:59.665Z,82.15
2019-03-15T03:14:27.925Z,80.95
2019-03-15T03:16:56.195Z,82.02
2019-03-15T03:19:24.461Z,80.67
2019-03-15T03:21:52.744Z,82.20
2019-03-15T03:24:21.001Z,80.10
2019-03-15T03:26:49.282Z,82.04
2019-03-15T03:29:17.558Z,81.12
2019-03-15T03:31:46.229Z,81.70
2019-03-15T03:34:14.758Z,81.85
2019-03-15T03:36:43.018Z,82.65
2019-03-15T03:39:11.279Z,82.87
2019-03-15T03:41:39.769Z,83.17
2019-03-15T03:44:08.043Z,82.40
2019-03-15T03:46:36.340Z,82.63
2019-03-15T03:49:04.659Z,82.25
2019-03-15T03:51:32.934Z,84.07
2019-03-15T03:54:01.191Z,84.35
2019-03-15T03:56:29.488Z,85.28
2019-03-15T03:58:57.759Z,83.09
2019-03-15T04:01:26.047Z,85.78
2019-03-15T04:03:54.364Z,85.11
2019-03-15T04:06:22.652Z,86.15
2019-03-15T04:08:50.961Z,86.73
2019-03-15T04:11:19.221Z,85.35
2019-03-15T04:13:47.493Z,84.51
2019-03-15T04:16:15.774Z,83.49
2019-03-15T04:18:44.023Z,83.82
2019-03-15T04:21:12.296Z,85.00
2019-03-15T04:23:40.559Z,85.63
2019-03-15T04:26:08.848Z,86.05
2019-03-15T04:28:37.102Z,86.07
2019-03-15T04:31:05.380Z,85.21
2019-03-15T04:33:33.631Z,86.33
2019-03-15T04:36:01.904Z,86.28
2019-03-15T04:38:30.162Z,86.57
2019-03-15T04:40:58.425Z,84.64
2019-03-15T04:43:26.697Z,86.58
2019-03-15T04:45:54.969Z,84.66
2019-03-15T04:48:23.315Z,83.75
2019-03-15T04:50:51.575Z,84.56
2019-03-15T04:53:19.848Z,84.66
2019-03-15T04:55:48.104Z,84.41
2019-03-15T04:58:16.374Z,86.08
2019-03-15T05:00:44.642Z,85.49
2019-03-15T05:03:12.984Z,85.80
2019-03-15T05:05:41.271Z,85.28
2019-03-15T05:08:09.531Z,83.24
2019-03-15T05:10:37.808Z,86.13
2019-03-15T05:13:06.067Z,84.79
2019-03-15T05:15:34.364Z,82.87
2019-03-15T05:18:02.626Z,83.82
2019-03-15T05:20:30.885Z,82.32
2019-03-15T05:22:59.147Z,82.91
2019-03-15T05:25:29.862Z,86.03
2019-03-15T05:27:57.391Z,86.10
2019-03-15T05:30:25.636Z,85.79
2019-03-15T05:32:53.925Z,85.92
2019-03-15T05:35:22.181Z,83.93
2019-03-15T05:37:50.439Z,85.21
2019-03-15T05:40:18.701Z,84.35
2019-03-15T05:42:47.141Z,86.15
2019-03-15T05:45:15.528Z,86.94
2019-03-15T05:47:43.811Z,86.56
2019-03-15T05:50:12.937Z,87.49
2019-03-15T05:52:41.220Z,89.45
2019-03-15T05:55:11.828Z,90.56
2019-03-15T05:57:40.088Z,86.18
2019-03-15T06:00:13.675Z,90.55
2019-03-15T06:02:41.944Z,89.08
2019-03-15T06:05:10.498Z,90.33
2019-03-15T06:07:38.785Z,89.20
2019-03-15T06:10:09.979Z,94.08
2019-03-15T06:12:38.223Z,97.66
2019-03-15T06:15:09.397Z,93.40
2019-03-15T06:17:37.673Z,89.52
2019-03-15T06:20:08.639Z,89.21
2019-03-15T06:22:36.896Z,81.53
2019-03-15T06:25:06.912Z,86.47
2019-03-15T06:27:35.181Z,87.02
2019-03-15T06:30:05.098Z,90.09
2019-03-15T06:32:33.353Z,100.00
2019-03-15T06:35:01.630Z,100.00
2019-03-15T06:37:29.926Z,100.00
2019-03-15T06:40:07.215Z,100.00
2019-03-15T06:42:58.894Z,100.00
2019-03-15T06:45:27.314Z,100.00
2019-03-15T06:47:55.584Z,100.00
2019-03-15T06:50:23.847Z,100.00
2019-03-15T06:52:52.495Z,95.07
2019-03-15T06:55:20.772Z,94.64
2019-03-15T06:57:56.698Z,100.00
2019-03-15T07:00:28.055Z,100.00
2019-03-15T07:02:56.393Z,100.00
2019-03-15T07:05:24.677Z,100.00
2019-03-15T07:07:52.981Z,100.00
2019-03-15T07:10:21.271Z,100.00
2019-03-15T07:12:49.725Z,99.17
2019-03-15T07:15:18.007Z,100.00
2019-03-15T07:17:46.257Z,100.00
2019-03-15T07:20:15.994Z,100.00
2019-03-15T07:22:44.241Z,100.00
2019-03-15T07:25:12.591Z,100.00
2019-03-15T07:27:42.686Z,100.00
2019-03-15T07:30:15.004Z,100.00
2019-03-15T07:32:43.303Z,100.00
2019-03-15T07:35:11.588Z,100.00
2019-03-15T07:37:39.860Z,100.00
2019-03-15T07:40:10.075Z,100.00
2019-03-15T07:42:38.334Z,100.00
2019-03-15T07:45:11.246Z,100.00
2019-03-15T07:47:39.530Z,100.00
2019-03-15T07:50:13.747Z,98.88
2019-03-15T07:52:40.453Z,97.67
2019-03-15T07:55:09.262Z,98.79
2019-03-15T07:57:37.534Z,100.00
2019-03-15T08:00:14.018Z,100.00
2019-03-15T08:02:42.364Z,98.13
2019-03-15T08:05:10.694Z,100.00
2019-03-15T08:07:44.862Z,100.00
2019-03-15T08:10:10.821Z,100.00
2019-03-15T08:12:39.182Z,97.63
2019-03-15T08:15:09.967Z,98.98
2019-03-15T08:17:38.235Z,100.00
2019-03-15T08:20:09.430Z,94.71
2019-03-15T08:22:37.699Z,100.00
2019-03-15T08:25:07.790Z,100.00
2019-03-15T08:27:36.053Z,100.00
2019-03-15T08:30:07.468Z,100.00
2019-03-15T08:32:35.724Z,99.55
2019-03-15T08:35:05.434Z,96.51
2019-03-15T08:37:33.707Z,91.00
2019-03-15T08:40:01.975Z,87.50
2019-03-15T08:42:34.531Z,89.02
2019-03-15T08:45:01.860Z,100.00
2019-03-15T08:47:32.557Z,100.00
2019-03-15T08:50:00.823Z,100.00
2019-03-15T08:52:29.101Z,97.49
2019-03-15T08:55:05.181Z,100.00
2019-03-15T08:57:27.583Z,100.00
2019-03-15T08:59:57.770Z,95.55
2019-03-15T09:02:25.902Z,100.00
2019-03-15T09:04:55.816Z,97.75
2019-03-15T09:07:24.102Z,99.84
2019-03-15T09:09:52.435Z,92.45
2019-03-15T09:12:20.690Z,98.53
2019-03-15T09:14:48.991Z,95.85
2019-03-15T09:17:19.920Z,95.95
2019-03-15T09:19:47.266Z,98.54
2019-03-15T09:22:15.549Z,99.44
2019-03-15T09:24:43.831Z,98.06
2019-03-15T09:27:12.111Z,96.47
2019-03-15T09:29:42.020Z,94.84
2019-03-15T09:32:10.304Z,89.22
2019-03-15T09:34:38.577Z,99.66
2019-03-15T09:37:06.863Z,90.08
2019-03-15T09:39:35.173Z,91.55
2019-03-15T09:42:03.450Z,95.91
2019-03-15T09:44:31.735Z,99.08
2019-03-15T09:47:02.543Z,96.79
2019-03-15T09:49:30.042Z,99.15
2019-03-15T09:51:58.294Z,93.99
2019-03-15T09:54:26.557Z,100.00
2019-03-15T09:56:54.850Z,100.00
2019-03-15T09:59:23.212Z,100.00
2019-03-15T10:01:51.472Z,96.98
2019-03-15T10:04:19.746Z,96.06
2019-03-15T10:06:48.075Z,98.40
2019-03-15T10:09:16.388Z,100.00
2019-03-15T10:11:44.686Z,100.00
2019-03-15T10:14:12.947Z,100.00
2019-03-15T10:16:41.245Z,100.00
2019-03-15T10:19:09.518Z,100.00
2019-03-15T10:21:37.812Z,96.90
2019-03-15T10:24:06.201Z,99.67
2019-03-15T10:26:34.424Z,96.24
2019-03-15T10:29:14.750Z,100.00
2019-03-15T10:31:32.729Z,98.95
2019-03-15T10:34:01.589Z,95.60
2019-03-15T10:36:29.841Z,100.00
2019-03-15T10:38:58.208Z,98.59
2019-03-15T10:41:26.491Z,100.00
2019-03-15T10:43:54.839Z,98.82
2019-03-15T10:46:23.108Z,99.96
2019-03-15T10:48:51.366Z,94.71
2019-03-15T10:51:19.622Z,94.84
2019-03-15T10:53:47.887Z,97.06
2019-03-15T10:56:16.166Z,98.30
2019-03-15T10:58:44.419Z,98.21
2019-03-15T11:01:12.679Z,100.00
2019-03-15T11:03:40.948Z,98.68
2019-03-15T11:06:09.249Z,100.00
2019-03-15T11:08:37.525Z,97.20
2019-03-15T11:11:05.860Z,98.08
2019-03-15T11:13:34.117Z,97.55
2019-03-15T11:16:02.379Z,95.96
2019-03-15T11:18:30.661Z,95.93
2019-03-15T11:20:58.933Z,97.82
2019-03-15T11:23:27.195Z,99.97
2019-03-15T11:25:55.482Z,96.70
2019-03-15T11:28:23.727Z,96.51
2019-03-15T11:30:51.973Z,100.00
2019-03-15T11:33:20.268Z,99.85
2019-03-15T11:35:48.524Z,100.00
2019-03-15T11:38:16.824Z,99.03
2019-03-15T11:40:45.105Z,96.56
2019-03-15T11:43:13.398Z,96.09
2019-03-15T11:45:41.662Z,98.82
2019-03-15T11:48:09.926Z,98.56
2019-03-15T11:50:38.226Z,97.33
2019-03-15T11:53:06.452Z,97.68
2019-03-15T11:55:34.698Z,98.98
2019-03-15T11:58:02.957Z,98.28
2019-03-15T12:00:31.239Z,97.18
2019-03-15T12:02:59.693Z,95.58
2019-03-15T12:05:27.974Z,94.45
2019-03-15T12:07:56.277Z,97.11
2019-03-15T12:10:24.544Z,98.61
2019-03-15T12:12:52.803Z,95.33
2019-03-15T12:15:21.088Z,98.22
2019-03-15T12:17:52.334Z,95.44
2019-03-15T12:20:20.648Z,92.29
2019-03-15T12:22:48.989Z,94.45
2019-03-15T12:25:17.240Z,94.27
2019-03-15T12:27:45.534Z,93.85
2019-03-15T12:30:16.099Z,94.48
2019-03-15T12:32:44.430Z,90.39
2019-03-15T12:35:14.780Z,93.26
2019-03-15T12:37:43.068Z,90.83
2019-03-15T12:40:15.818Z,91.25
2019-03-15T12:42:44.091Z,88.50
2019-03-15T12:45:14.302Z,91.16
2019-03-15T12:47:42.553Z,86.97
2019-03-15T12:50:14.298Z,91.37
2019-03-15T12:52:47.671Z,87.75
2019-03-15T12:55:13.671Z,88.52
2019-03-15T12:57:42.025Z,89.71
2019-03-15T13:00:15.109Z,88.06
2019-03-15T13:02:43.368Z,87.92
2019-03-15T13:05:11.663Z,86.71
2019-03-15T13:07:39.919Z,87.34
2019-03-15T13:10:13.428Z,87.00
2019-03-15T13:12:41.671Z,85.58
2019-03-15T13:15:12.685Z,83.47
2019-03-15T13:17:41.078Z,87.28
2019-03-15T13:20:16.840Z,87.52
2019-03-15T13:22:45.118Z,87.68
2019-03-15T13:25:13.627Z,87.68
2019-03-15T13:27:42.709Z,85.14
2019-03-15T13:30:22.090Z,84.68
2019-03-15T13:32:51.398Z,85.42
2019-03-15T13:35:19.771Z,85.63
2019-03-15T13:37:48.057Z,88.05
2019-03-15T13:40:20.212Z,84.58
2019-03-15T13:42:48.547Z,86.73
2019-03-15T13:45:17.387Z,88.05
2019-03-15T13:47:45.703Z,83.89
2019-03-15T13:50:15.131Z,88.99
2019-03-15T13:52:43.416Z,88.46
2019-03-15T13:55:11.746Z,86.91
2019-03-15T13:57:40.024Z,88.98
2019-03-15T14:00:17.048Z,86.92
2019-03-15T14:02:45.562Z,88.99
2019-03-15T14:05:13.919Z,86.16
2019-03-15T14:07:44.777Z,87.75
2019-03-15T14:10:17.699Z,87.54
2019-03-15T14:12:46.174Z,87.71
2019-03-15T14:15:20.847Z,87.58
2019-03-15T14:17:49.103Z,85.05
2019-03-15T14:20:17.382Z,84.91
2019-03-15T14:22:45.653Z,85.77
2019-03-15T14:25:19.479Z,85.94
2019-03-15T14:27:47.799Z,86.18
2019-03-15T14:30:16.072Z,87.05
2019-03-15T14:32:44.362Z,86.13
2019-03-15T14:35:12.713Z,82.15
2019-03-15T14:37:41.071Z,86.31
2019-03-15T14:40:10.777Z,86.64
2019-03-15T14:42:39.386Z,84.43
2019-03-15T14:45:15.845Z,84.32
2019-03-15T14:47:44.308Z,83.73
2019-03-15T14:50:14.017Z,82.00
2019-03-15T14:52:42.306Z,82.14
2019-03-15T14:55:11.519Z,83.51
2019-03-15T14:57:50.966Z,82.46
2019-03-15T15:00:13.110Z,83.84
2019-03-15T15:02:41.370Z,82.72
2019-03-15T15:05:14.814Z,84.11
2019-03-15T15:07:43.124Z,83.22
2019-03-15T15:10:16.080Z,83.01
2019-03-15T15:12:44.385Z,82.30
2019-03-15T15:15:14.104Z,85.47
2019-03-15T15:17:42.386Z,82.61
2019-03-15T15:20:11.691Z,84.08
2019-03-15T15:22:41.841Z,80.33
2019-03-15T15:25:15.372Z,84.00
2019-03-15T15:27:43.652Z,81.72
2019-03-15T15:30:14.039Z,81.08
2019-03-15T15:32:42.295Z,81.97
2019-03-15T15:35:11.693Z,82.05
2019-03-15T15:37:39.983Z,81.82
2019-03-15T15:40:10.864Z,83.50
2019-03-15T15:42:39.191Z,80.77
2019-03-15T15:45:09.429Z,81.97
2019-03-15T15:47:37.949Z,80.54
2019-03-15T15:50:11.049Z,79.41
2019-03-15T15:52:39.292Z,80.37
2019-03-15T15:55:09.689Z,80.25
2019-03-15T15:57:37.972Z,79.52
2019-03-15T16:00:09.515Z,81.48
2019-03-15T16:02:37.795Z,81.59
2019-03-15T16:05:08.635Z,81.57
2019-03-15T16:07:36.866Z,77.18
2019-03-15T16:10:08.638Z,79.20
2019-03-15T16:12:36.894Z,79.21
2019-03-15T16:15:13.741Z,78.60
2019-03-15T16:17:45.206Z,81.37
2019-03-15T16:20:12.321Z,81.43
2019-03-15T16:22:40.614Z,79.14
2019-03-15T16:25:10.006Z,81.21
2019-03-15T16:27:38.361Z,80.28
2019-03-15T16:30:22.282Z,80.86
2019-03-15T16:32:55.520Z,81.68
2019-03-15T16:35:28.228Z,82.35
2019-03-15T16:37:56.550Z,81.82
2019-03-15T16:40:24.821Z,79.77
2019-03-15T16:42:53.165Z,79.98
2019-03-15T16:45:26.563Z,80.07
2019-03-15T16:47:54.939Z,79.87
2019-03-15T16:50:23.168Z,80.79
2019-03-15T16:52:51.447Z,78.58
2019-03-15T16:55:19.727Z,81.76
2019-03-15T16:57:48.012Z,81.00
2019-03-15T17:00:16.871Z,80.79
2019-03-15T17:02:45.138Z,80.98
2019-03-15T17:05:13.842Z,80.17
2019-03-15T17:07:42.550Z,79.87
2019-03-15T17:10:18.832Z,78.61
2019-03-15T17:12:47.159Z,79.63
2019-03-15T17:15:18.612Z,80.32
2019-03-15T17:17:47.052Z,77.78
2019-03-15T17:20:16.545Z,81.31
2019-03-15T17:22:51.609Z,79.70
2019-03-15T17:25:19.923Z,81.05
2019-03-15T17:27:48.190Z,82.12
2019-03-15T17:30:17.590Z,82.96
2019-03-15T17:32:45.941Z,82.51
2019-03-15T17:35:15.653Z,82.41
2019-03-15T17:37:43.938Z,80.21
2019-03-15T17:40:17.346Z,81.03
2019-03-15T17:42:45.637Z,82.42
2019-03-15T17:45:14.017Z,82.42
2019-03-15T17:47:42.360Z,79.64
2019-03-15T17:50:18.547Z,82.16
2019-03-15T17:52:50.309Z,81.52
2019-03-15T17:55:19.634Z,80.43
2019-03-15T17:57:47.984Z,81.30
2019-03-15T18:00:25.551Z,82.57
2019-03-15T18:02:55.516Z,81.71
2019-03-15T18:05:23.812Z,81.66
2019-03-15T18:07:53.752Z,84.98
2019-03-15T18:10:22.015Z,84.17
2019-03-15T18:12:50.305Z,83.55
2019-03-15T18:15:18.621Z,87.18
2019-03-15T18:17:46.895Z,85.56
2019-03-15T18:20:15.242Z,84.02
2019-03-15T18:22:43.485Z,86.87
2019-03-15T18:25:11.878Z,85.26
2019-03-15T18:27:40.181Z,87.20
2019-03-15T18:30:16.748Z,86.46
2019-03-15T18:32:45.238Z,87.53
2019-03-15T18:35:13.982Z,87.12
2019-03-15T18:37:42.311Z,87.12
2019-03-15T18:40:13.630Z,84.60
2019-03-15T18:42:42.154Z,84.49
2019-03-15T18:45:14.594Z,85.27
2019-03-15T18:47:42.957Z,87.24
2019-03-15T18:50:23.332Z,85.06
2019-03-15T18:52:51.639Z,88.91
2019-03-15T18:55:19.957Z,85.90
2019-03-15T18:57:48.278Z,88.37
2019-03-15T19:00:19.246Z,87.16
2019-03-15T19:02:47.593Z,85.40
2019-03-15T19:05:16.427Z,86.08
2019-03-15T19:07:44.714Z,85.53
2019-03-15T19:10:14.515Z,86.92
2019-03-15T19:12:42.814Z,88.45
2019-03-15T19:15:16.013Z,89.44
2019-03-15T19:17:44.362Z,87.28
2019-03-15T19:20:16.298Z,87.54
2019-03-15T19:22:44.634Z,88.38
2019-03-15T19:25:14.149Z,88.41
2019-03-15T19:27:42.432Z,86.41
2019-03-15T19:30:18.173Z,88.19
2019-03-15T19:32:46.578Z,86.82
2019-03-15T19:35:14.841Z,85.65
2019-03-15T19:37:43.127Z,87.08
2019-03-15T19:40:13.979Z,85.53
2019-03-15T19:42:45.070Z,86.21
2019-03-15T19:45:14.826Z,86.00
2019-03-15T19:47:43.156Z,87.65
2019-03-15T19:50:13.628Z,85.57
2019-03-15T19:52:42.001Z,85.52
2019-03-15T19:55:14.205Z,83.58
2019-03-15T19:57:42.566Z,83.09
2019-03-15T20:00:19.056Z,84.70
2019-03-15T20:02:47.367Z,82.31
2019-03-15T20:05:15.628Z,82.09
2019-03-15T20:07:47.216Z,85.61
2019-03-15T20:10:17.223Z,85.29
2019-03-15T20:12:45.846Z,84.27
2019-03-15T20:15:15.485Z,84.12
2019-03-15T20:17:43.750Z,87.71
2019-03-15T20:20:20.034Z,88.43
2019-03-15T20:22:48.309Z,89.29
2019-03-15T20:25:17.314Z,83.80
2019-03-15T20:27:45.611Z,86.00
2019-03-15T20:30:21.938Z,87.19
2019-03-15T20:32:45.903Z,85.68
2019-03-15T20:35:14.180Z,87.32
2019-03-15T20:37:42.468Z,85.29
2019-03-15T20:40:12.336Z,85.88
2019-03-15T20:42:40.580Z,87.53
2019-03-15T20:45:16.387Z,83.47
2019-03-15T20:47:44.656Z,84.38
2019-03-15T20:50:13.767Z,86.83
2019-03-15T20:52:42.065Z,85.09
2019-03-15T20:55:10.561Z,83.60
2019-03-15T20:57:38.841Z,84.54
2019-03-15T21:00:15.357Z,85.30
2019-03-15T21:02:43.638Z,84.22
2019-03-15T21:05:11.975Z,86.29
2019-03-15T21:07:43.332Z,86.14
2019-03-15T21:10:12.370Z,85.51
2019-03-15T21:12:40.650Z,86.42
2019-03-15T21:15:14.051Z,83.55
2019-03-15T21:17:42.443Z,83.25
2019-03-15T21:20:18.689Z,83.09
2019-03-15T21:22:46.978Z,85.29
2019-03-15T21:25:15.256Z,83.95
2019-03-15T21:27:53.678Z,81.33
2019-03-15T21:30:16.634Z,85.13
2019-03-15T21:32:44.937Z,84.50
2019-03-15T21:35:13.300Z,86.90
2019-03-15T21:37:41.577Z,84.25
2019-03-15T21:40:11.608Z,83.24
2019-03-15T21:42:39.868Z,83.97
2019-03-15T21:45:10.099Z,85.30
2019-03-15T21:47:38.347Z,82.78
2019-03-15T21:50:17.658Z,83.57
2019-03-15T21:52:45.998Z,84.13
2019-03-15T21:55:14.258Z,84.25
2019-03-15T21:57:42.558Z,83.64
2019-03-15T22:00:15.387Z,82.78
2019-03-15T22:02:43.654Z,86.30
2019-03-15T22:05:11.942Z,82.35
2019-03-15T22:07:40.238Z,84.84
2019-03-15T22:10:11.686Z,84.91
2019-03-15T22:12:41.386Z,84.58
2019-03-15T22:15:13.366Z,82.89
2019-03-15T22:17:41.843Z,83.84
2019-03-15T22:20:17.352Z,84.06
2019-03-15T22:22:45.609Z,83.96
2019-03-15T22:25:13.876Z,82.68
2019-03-15T22:27:42.204Z,84.39
2019-03-15T22:30:14.524Z,84.14
2019-03-15T22:32:42.788Z,83.53
2019-03-15T22:35:11.121Z,84.79
2019-03-15T22:37:39.456Z,84.59
2019-03-15T22:40:11.946Z,83.74
2019-03-15T22:42:41.305Z,83.11
2019-03-15T22:45:16.932Z,81.50
2019-03-15T22:47:51.375Z,82.35
2019-03-15T22:50:18.855Z,81.62
2019-03-15T22:52:47.138Z,83.80
2019-03-15T22:55:15.422Z,82.94
2019-03-15T22:57:43.694Z,82.88
2019-03-15T23:00:16.440Z,81.83
2019-03-15T23:02:44.893Z,82.16
2019-03-15T23:05:13.513Z,81.96
2019-03-15T23:07:41.795Z,84.57
2019-03-15T23:10:10.786Z,82.83
2019-03-15T23:12:39.168Z,85.69
2019-03-15T23:15:09.758Z,83.67
2019-03-15T23:17:38.089Z,81.02
2019-03-15T23:20:08.014Z,83.31
2019-03-15T23:22:36.321Z,85.50
2019-03-15T23:25:05.920Z,84.25
2019-03-15T23:27:34.192Z,84.02
2019-03-15T23:30:02.540Z,84.21
2019-03-15T23:32:30.828Z,87.00
2019-03-15T23:34:59.125Z,83.73
2019-03-15T23:37:27.377Z,84.77
2019-03-15T23:39:55.648Z,83.86
2019-03-15T23:42:23.915Z,84.61
2019-03-15T23:44:52.198Z,82.72
2019-03-15T23:47:20.461Z,84.25
2019-03-15T23:49:48.722Z,83.42
2019-03-15T23:52:17.016Z,86.74
2019-03-15T23:54:45.338Z,83.71
2019-03-15T23:57:13.588Z,85.63
2019-03-15T23:59:44.685Z,83.68
